sensor_id;sensor_type;location;lat;lon;timestamp;pressure;altitude;pressure_sealevel;temperature;humidity
39301;BME280;25019;42.626;23.380;2023-04-26T00:02:23;93529.59;;;7.83;100.00
39301;BME280;25019;42.626;23.380;2023-04-26T00:04:52;93533.81;;;7.79;100.00
39301;BME280;25019;42.626;23.380;2023-04-26T00:07:23;93527.69;;;7.73;100.00
39301;BME280;25019;42.626;23.380;2023-04-26T00:09:52;93420.41;;;7.07;100.00
39301;BME280;25019;42.626;23.380;2023-04-26T00:12:17;93460.47;;;7.31;100.00
39301;BME280;25019;42.626;23.380;2023-04-26T00:15:07;93509.41;;;7.67;100.00
39301;BME280;25019;42.626;23.380;2023-04-26T00:17:33;93498.72;;;7.56;100.00
39301;BME280;25019;42.626;23.380;2023-04-26T00:19:58;93411.81;;;6.95;100.00
39301;BME280;25019;42.626;23.380;2023-04-26T00:22:24;93486.00;;;7.48;100.00
39301;BME280;25019;42.626;23.380;2023-04-26T00:24:50;93492.88;;;7.49;100.00
39301;BME280;25019;42.626;23.380;2023-04-26T00:27:16;93497.09;;;7.50;100.00
39301;BME280;25019;42.626;23.380;2023-04-26T00:29:42;93447.38;;;7.14;100.00
39301;BME280;25019;42.626;23.380;2023-04-26T00:32:08;93495.16;;;7.40;100.00
39301;BME280;25019;42.626;23.380;2023-04-26T00:34:35;93491.22;;;7.43;100.00
39301;BME280;25019;42.626;23.380;2023-04-26T00:37:01;93482.75;;;7.41;100.00
39301;BME280;25019;42.626;23.380;2023-04-26T00:39:27;93420.84;;;6.99;100.00
39301;BME280;25019;42.626;23.380;2023-04-26T00:41:53;93427.44;;;6.96;100.00
39301;BME280;25019;42.626;23.380;2023-04-26T00:44:19;93429.81;;;6.98;100.00
39301;BME280;25019;42.626;23.380;2023-04-26T00:46:47;93423.38;;;6.88;100.00
39301;BME280;25019;42.626;23.380;2023-04-26T00:49:18;93466.63;;;7.10;100.00
39301;BME280;25019;42.626;23.380;2023-04-26T00:51:44;93450.44;;;7.01;100.00
39301;BME280;25019;42.626;23.380;2023-04-26T00:54:10;93478.56;;;7.17;100.00
39301;BME280;25019;42.626;23.380;2023-04-26T00:56:37;93466.00;;;7.02;100.00
39301;BME280;25019;42.626;23.380;2023-04-26T00:59:03;93479.56;;;7.11;100.00
39301;BME280;25019;42.626;23.380;2023-04-26T01:01:29;93471.56;;;7.01;100.00
39301;BME280;25019;42.626;23.380;2023-04-26T01:03:55;93466.47;;;6.94;100.00
39301;BME280;25019;42.626;23.380;2023-04-26T01:06:21;93422.81;;;6.59;100.00
39301;BME280;25019;42.626;23.380;2023-04-26T01:08:48;93480.22;;;6.96;100.00
39301;BME280;25019;42.626;23.380;2023-04-26T01:11:18;93436.63;;;6.66;100.00
39301;BME280;25019;42.626;23.380;2023-04-26T01:13:47;93484.88;;;6.89;100.00
39301;BME280;25019;42.626;23.380;2023-04-26T01:16:14;93488.44;;;6.78;100.00
39301;BME280;25019;42.626;23.380;2023-04-26T01:18:40;93442.38;;;6.41;100.00
39301;BME280;25019;42.626;23.380;2023-04-26T01:21:06;93474.75;;;6.58;100.00
39301;BME280;25019;42.626;23.380;2023-04-26T01:23:31;93466.75;;;6.48;100.00
39301;BME280;25019;42.626;23.380;2023-04-26T01:25:57;93471.94;;;6.43;100.00
39301;BME280;25019;42.626;23.380;2023-04-26T01:28:23;93433.03;;;6.11;100.00
39301;BME280;25019;42.626;23.380;2023-04-26T01:30:49;93468.06;;;6.28;100.00
39301;BME280;25019;42.626;23.380;2023-04-26T01:33:15;93454.84;;;6.23;100.00
39301;BME280;25019;42.626;23.380;2023-04-26T01:35:41;93467.75;;;6.25;100.00
39301;BME280;25019;42.626;23.380;2023-04-26T01:38:07;93462.91;;;6.17;100.00
39301;BME280;25019;42.626;23.380;2023-04-26T01:40:33;93475.19;;;6.28;100.00
39301;BME280;25019;42.626;23.380;2023-04-26T01:42:59;93436.00;;;5.97;100.00
39301;BME280;25019;42.626;23.380;2023-04-26T01:45:27;93476.50;;;6.25;100.00
39301;BME280;25019;42.626;23.380;2023-04-26T01:48:20;93488.44;;;6.33;100.00
39301;BME280;25019;42.626;23.380;2023-04-26T01:50:46;93437.69;;;6.04;100.00
39301;BME280;25019;42.626;23.380;2023-04-26T01:53:12;93481.88;;;6.36;100.00
39301;BME280;25019;42.626;23.380;2023-04-26T01:55:38;93484.88;;;6.44;100.00
39301;BME280;25019;42.626;23.380;2023-04-26T01:58:03;93420.34;;;6.08;100.00
39301;BME280;25019;42.626;23.380;2023-04-26T02:00:32;93471.47;;;6.46;100.00
39301;BME280;25019;42.626;23.380;2023-04-26T02:02:58;93469.88;;;6.45;100.00
39301;BME280;25019;42.626;23.380;2023-04-26T02:05:23;93466.75;;;6.48;100.00
39301;BME280;25019;42.626;23.380;2023-04-26T02:07:50;93465.16;;;6.47;100.00
39301;BME280;25019;42.626;23.380;2023-04-26T02:10:15;93409.56;;;6.09;100.00
39301;BME280;25019;42.626;23.380;2023-04-26T02:12:41;93469.94;;;6.50;100.00
39301;BME280;25019;42.626;23.380;2023-04-26T02:15:07;93395.44;;;5.98;100.00
39301;BME280;25019;42.626;23.380;2023-04-26T02:17:33;93470.97;;;6.49;100.00
39301;BME280;25019;42.626;23.380;2023-04-26T02:19:59;93410.91;;;6.12;100.00
39301;BME280;25019;42.626;23.380;2023-04-26T02:22:24;93362.50;;;5.79;100.00
39301;BME280;25019;42.626;23.380;2023-04-26T02:24:50;93462.94;;;6.39;100.00
39301;BME280;25019;42.626;23.380;2023-04-26T02:27:17;93471.41;;;6.41;100.00
39301;BME280;25019;42.626;23.380;2023-04-26T02:29:43;93414.94;;;5.97;100.00
39301;BME280;25019;42.626;23.380;2023-04-26T02:32:09;93466.06;;;6.36;100.00
39301;BME280;25019;42.626;23.380;2023-04-26T02:34:35;93470.63;;;6.40;100.00
39301;BME280;25019;42.626;23.380;2023-04-26T02:37:01;93458.69;;;6.38;100.00
39301;BME280;25019;42.626;23.380;2023-04-26T02:39:26;93462.94;;;6.39;100.00
39301;BME280;25019;42.626;23.380;2023-04-26T02:41:52;93472.13;;;6.58;100.00
39301;BME280;25019;42.626;23.380;2023-04-26T02:44:18;93457.88;;;6.59;100.00
39301;BME280;25019;42.626;23.380;2023-04-26T02:46:44;93431.63;;;6.48;100.00
39301;BME280;25019;42.626;23.380;2023-04-26T02:49:10;93418.41;;;6.20;100.00
39301;BME280;25019;42.626;23.380;2023-04-26T02:51:35;93347.72;;;5.78;100.00
39301;BME280;25019;42.626;23.380;2023-04-26T02:54:01;93442.63;;;6.39;100.00
39301;BME280;25019;42.626;23.380;2023-04-26T02:56:27;93408.03;;;6.13;100.00
39301;BME280;25019;42.626;23.380;2023-04-26T02:58:53;93434.09;;;6.32;100.00
39301;BME280;25019;42.626;23.380;2023-04-26T03:01:19;93451.03;;;6.36;100.00
39301;BME280;25019;42.626;23.380;2023-04-26T03:03:45;93422.09;;;6.19;100.00
39301;BME280;25019;42.626;23.380;2023-04-26T03:06:11;93379.06;;;5.96;100.00
39301;BME280;25019;42.626;23.380;2023-04-26T03:08:37;93404.91;;;6.17;100.00
39301;BME280;25019;42.626;23.380;2023-04-26T03:11:02;93411.91;;;6.28;100.00
39301;BME280;25019;42.626;23.380;2023-04-26T03:13:28;93439.63;;;6.53;100.00
39301;BME280;25019;42.626;23.380;2023-04-26T03:15:55;93382.09;;;6.27;100.00
39301;BME280;25019;42.626;23.380;2023-04-26T03:18:21;93377.38;;;6.29;100.00
39301;BME280;25019;42.626;23.380;2023-04-26T03:20:47;93375.78;;;6.28;100.00
39301;BME280;25019;42.626;23.380;2023-04-26T03:23:13;93434.00;;;6.71;100.00
39301;BME280;25019;42.626;23.380;2023-04-26T03:25:39;93396.84;;;6.51;100.00
39301;BME280;25019;42.626;23.380;2023-04-26T03:28:05;93448.63;;;6.79;100.00
39301;BME280;25019;42.626;23.380;2023-04-26T03:30:30;93447.25;;;6.77;100.00
39301;BME280;25019;42.626;23.380;2023-04-26T03:32:56;93458.44;;;6.84;100.00
39301;BME280;25019;42.626;23.380;2023-04-26T03:35:22;93449.69;;;6.83;100.00
39301;BME280;25019;42.626;23.380;2023-04-26T03:37:48;93451.84;;;6.86;100.00
39301;BME280;25019;42.626;23.380;2023-04-26T03:40:15;93452.16;;;6.90;100.00
39301;BME280;25019;42.626;23.380;2023-04-26T03:42:41;93412.31;;;6.64;100.00
39301;BME280;25019;42.626;23.380;2023-04-26T03:45:07;93399.81;;;6.54;100.00
39301;BME280;25019;42.626;23.380;2023-04-26T03:47:34;93394.69;;;6.70;100.00
39301;BME280;25019;42.626;23.380;2023-04-26T03:50:00;93364.78;;;6.59;100.00
39301;BME280;25019;42.626;23.380;2023-04-26T03:52:25;93443.63;;;7.38;100.00
39301;BME280;25019;42.626;23.380;2023-04-26T03:54:52;93459.69;;;7.63;100.00
39301;BME280;25019;42.626;23.380;2023-04-26T03:57:17;93447.78;;;7.61;100.00
39301;BME280;25019;42.626;23.380;2023-04-26T03:59:43;93441.41;;;7.57;100.00
39301;BME280;25019;42.626;23.380;2023-04-26T04:02:09;93456.81;;;7.70;100.00
39301;BME280;25019;42.626;23.380;2023-04-26T04:04:34;93409.06;;;7.44;100.00
39301;BME280;25019;42.626;23.380;2023-04-26T04:07:01;93418.91;;;7.49;100.00
39301;BME280;25019;42.626;23.380;2023-04-26T04:09:27;93456.91;;;7.80;100.00
39301;BME280;25019;42.626;23.380;2023-04-26T04:11:53;93450.25;;;7.73;100.00
39301;BME280;25019;42.626;23.380;2023-04-26T04:14:19;93477.63;;;7.94;100.00
39301;BME280;25019;42.626;23.380;2023-04-26T04:16:45;93484.06;;;8.08;100.00
39301;BME280;25019;42.626;23.380;2023-04-26T04:19:11;93470.84;;;8.08;100.00
39301;BME280;25019;42.626;23.380;2023-04-26T04:21:36;93460.25;;;8.08;100.00
39301;BME280;25019;42.626;23.380;2023-04-26T04:24:03;93477.78;;;8.25;100.00
39301;BME280;25019;42.626;23.380;2023-04-26T04:26:29;93475.78;;;8.43;100.00
39301;BME280;25019;42.626;23.380;2023-04-26T04:28:55;93421.41;;;8.14;100.00
39301;BME280;25019;42.626;23.380;2023-04-26T04:31:24;93483.56;;;8.60;100.00
39301;BME280;25019;42.626;23.380;2023-04-26T04:33:50;93437.41;;;8.35;100.00
39301;BME280;25019;42.626;23.380;2023-04-26T04:36:16;93475.16;;;8.78;100.00
39301;BME280;25019;42.626;23.380;2023-04-26T04:38:43;93485.03;;;8.93;100.00
39301;BME280;25019;42.626;23.380;2023-04-26T04:41:10;93486.69;;;9.20;100.00
39301;BME280;25019;42.626;23.380;2023-04-26T04:43:35;93480.09;;;9.33;100.00
39301;BME280;25019;42.626;23.380;2023-04-26T04:46:01;93459.94;;;9.17;100.00
39301;BME280;25019;42.626;23.380;2023-04-26T04:48:27;93488.31;;;9.42;100.00
39301;BME280;25019;42.626;23.380;2023-04-26T04:50:54;93486.47;;;9.53;100.00
39301;BME280;25019;42.626;23.380;2023-04-26T04:53:20;93504.53;;;9.71;100.00
39301;BME280;25019;42.626;23.380;2023-04-26T04:55:45;93447.50;;;9.48;100.00
39301;BME280;25019;42.626;23.380;2023-04-26T04:58:13;93483.28;;;9.87;100.00
39301;BME280;25019;42.626;23.380;2023-04-26T05:00:39;93397.69;;;9.50;100.00
39301;BME280;25019;42.626;23.380;2023-04-26T05:03:25;93449.34;;;9.89;100.00
39301;BME280;25019;42.626;23.380;2023-04-26T05:05:51;93491.50;;;10.16;100.00
39301;BME280;25019;42.626;23.380;2023-04-26T05:08:17;93488.03;;;10.11;100.00
39301;BME280;25019;42.626;23.380;2023-04-26T05:10:44;93489.91;;;10.05;100.00
39301;BME280;25019;42.626;23.380;2023-04-26T05:13:10;93485.41;;;10.05;100.00
39301;BME280;25019;42.626;23.380;2023-04-26T05:15:37;93478.25;;;10.11;100.00
39301;BME280;25019;42.626;23.380;2023-04-26T05:18:03;93495.22;;;10.10;100.00
39301;BME280;25019;42.626;23.380;2023-04-26T05:20:28;93464.44;;;9.94;100.00
39301;BME280;25019;42.626;23.380;2023-04-26T05:22:54;93405.88;;;9.69;100.00
39301;BME280;25019;42.626;23.380;2023-04-26T05:25:20;93502.09;;;10.42;100.00
39301;BME280;25019;42.626;23.380;2023-04-26T05:27:48;93503.38;;;10.60;100.00
39301;BME280;25019;42.626;23.380;2023-04-26T05:30:21;93509.41;;;10.82;100.00
39301;BME280;25019;42.626;23.380;2023-04-26T05:33:05;93508.34;;;10.88;100.00
39301;BME280;25019;42.626;23.380;2023-04-26T05:35:40;93490.81;;;10.82;100.00
39301;BME280;25019;42.626;23.380;2023-04-26T05:38:06;93507.69;;;11.12;100.00
39301;BME280;25019;42.626;23.380;2023-04-26T05:40:31;93511.50;;;11.00;100.00
39301;BME280;25019;42.626;23.380;2023-04-26T05:42:57;93462.97;;;10.79;100.00
39301;BME280;25019;42.626;23.380;2023-04-26T05:45:26;93474.88;;;10.87;100.00
39301;BME280;25019;42.626;23.380;2023-04-26T05:47:51;93518.53;;;11.26;100.00
39301;BME280;25019;42.626;23.380;2023-04-26T05:50:17;93513.75;;;11.28;100.00
39301;BME280;25019;42.626;23.380;2023-04-26T05:52:43;93519.25;;;11.42;100.00
39301;BME280;25019;42.626;23.380;2023-04-26T05:55:09;93517.66;;;11.41;100.00
39301;BME280;25019;42.626;23.380;2023-04-26T05:57:35;93435.31;;;10.85;100.00
39301;BME280;25019;42.626;23.380;2023-04-26T06:00:02;93472.63;;;11.09;100.00
39301;BME280;25019;42.626;23.380;2023-04-26T06:02:39;93516.34;;;11.38;100.00
39301;BME280;25019;42.626;23.380;2023-04-26T06:05:07;93485.06;;;11.19;100.00
39301;BME280;25019;42.626;23.380;2023-04-26T06:07:34;93421.19;;;10.90;100.00
39301;BME280;25019;42.626;23.380;2023-04-26T06:10:01;93460.69;;;11.07;100.00
39301;BME280;25019;42.626;23.380;2023-04-26T06:12:27;93482.31;;;11.40;100.00
39301;BME280;25019;42.626;23.380;2023-04-26T06:14:53;93445.16;;;11.30;100.00
39301;BME280;25019;42.626;23.380;2023-04-26T06:17:25;93459.53;;;11.23;100.00
39301;BME280;25019;42.626;23.380;2023-04-26T06:19:50;93475.94;;;11.41;100.00
39301;BME280;25019;42.626;23.380;2023-04-26T06:22:16;93392.31;;;10.78;100.00
39301;BME280;25019;42.626;23.380;2023-04-26T06:24:44;93449.94;;;11.28;100.00
39301;BME280;25019;42.626;23.380;2023-04-26T06:27:10;93442.53;;;11.19;100.00
39301;BME280;25019;42.626;23.380;2023-04-26T06:29:38;93509.78;;;11.70;100.00
39301;BME280;25019;42.626;23.380;2023-04-26T06:32:04;93502.88;;;11.69;100.00
39301;BME280;25019;42.626;23.380;2023-04-26T06:34:31;93488.50;;;11.70;100.00
39301;BME280;25019;42.626;23.380;2023-04-26T06:36:57;93493.22;;;12.13;100.00
39301;BME280;25019;42.626;23.380;2023-04-26T06:39:24;93402.88;;;11.68;100.00
39301;BME280;25019;42.626;23.380;2023-04-26T06:41:52;93506.75;;;12.22;100.00
39301;BME280;25019;42.626;23.380;2023-04-26T06:44:25;93491.94;;;11.71;100.00
39301;BME280;25019;42.626;23.380;2023-04-26T06:46:58;93485.19;;;11.49;100.00
39301;BME280;25019;42.626;23.380;2023-04-26T06:49:27;93412.50;;;10.79;100.00
39301;BME280;25019;42.626;23.380;2023-04-26T06:51:55;93497.63;;;11.08;100.00
39301;BME280;25019;42.626;23.380;2023-04-26T06:54:27;93506.75;;;10.82;100.00
39301;BME280;25019;42.626;23.380;2023-04-26T06:56:53;93522.53;;;10.42;100.00
39301;BME280;25019;42.626;23.380;2023-04-26T06:59:18;93522.28;;;10.17;100.00
39301;BME280;25019;42.626;23.380;2023-04-26T07:01:44;93513.53;;;10.22;100.00
39301;BME280;25019;42.626;23.380;2023-04-26T07:04:09;93522.00;;;10.14;100.00
39301;BME280;25019;42.626;23.380;2023-04-26T07:06:36;93520.66;;;10.22;100.00
39301;BME280;25019;42.626;23.380;2023-04-26T07:09:03;93522.53;;;10.52;100.00
39301;BME280;25019;42.626;23.380;2023-04-26T07:11:29;93515.75;;;10.96;100.00
39301;BME280;25019;42.626;23.380;2023-04-26T07:13:58;93499.69;;;11.22;100.00
39301;BME280;25019;42.626;23.380;2023-04-26T07:16:23;93529.03;;;11.46;100.00
39301;BME280;25019;42.626;23.380;2023-04-26T07:18:49;93515.28;;;11.39;100.00
39301;BME280;25019;42.626;23.380;2023-04-26T07:21:17;93473.09;;;11.27;100.00
39301;BME280;25019;42.626;23.380;2023-04-26T07:23:42;93522.28;;;11.64;92.53
39301;BME280;25019;42.626;23.380;2023-04-26T07:26:11;93520.72;;;11.58;88.18
39301;BME280;25019;42.626;23.380;2023-04-26T07:28:37;93495.88;;;11.38;87.65
39301;BME280;25019;42.626;23.380;2023-04-26T07:31:03;93520.13;;;11.72;86.41
39301;BME280;25019;42.626;23.380;2023-04-26T07:33:29;93456.97;;;11.53;80.80
39301;BME280;25019;42.626;23.380;2023-04-26T07:35:56;93476.69;;;11.81;79.18
39301;BME280;25019;42.626;23.380;2023-04-26T07:38:22;93465.69;;;11.93;76.90
39301;BME280;25019;42.626;23.380;2023-04-26T07:40:48;93522.63;;;12.27;73.34
39301;BME280;25019;42.626;23.380;2023-04-26T07:43:13;93458.94;;;12.06;75.89
39301;BME280;25019;42.626;23.380;2023-04-26T07:45:40;93481.50;;;12.43;74.15
39301;BME280;25019;42.626;23.380;2023-04-26T07:48:06;93525.88;;;12.53;70.83
39301;BME280;25019;42.626;23.380;2023-04-26T07:50:31;93517.22;;;12.37;72.38
39301;BME280;25019;42.626;23.380;2023-04-26T07:52:57;93535.53;;;12.14;72.92
39301;BME280;25019;42.626;23.380;2023-04-26T07:55:23;93503.03;;;11.83;71.76
39301;BME280;25019;42.626;23.380;2023-04-26T07:57:48;93544.09;;;12.06;72.16
39301;BME280;25019;42.626;23.380;2023-04-26T08:00:15;93489.97;;;11.87;71.80
39301;BME280;25019;42.626;23.380;2023-04-26T08:02:41;93537.41;;;12.43;71.07
39301;BME280;25019;42.626;23.380;2023-04-26T08:05:07;93527.13;;;12.61;70.30
39301;BME280;25019;42.626;23.380;2023-04-26T08:07:33;93538.53;;;12.67;69.79
39301;BME280;25019;42.626;23.380;2023-04-26T08:09:59;93541.06;;;12.77;69.04
39301;BME280;25019;42.626;23.380;2023-04-26T08:12:25;93522.78;;;12.41;69.07
39301;BME280;25019;42.626;23.380;2023-04-26T08:14:51;93535.53;;;12.44;69.89
39301;BME280;25019;42.626;23.380;2023-04-26T08:17:16;93506.31;;;11.69;71.08
39301;BME280;25019;42.626;23.380;2023-04-26T08:19:42;93535.88;;;11.63;70.52
39301;BME280;25019;42.626;23.380;2023-04-26T08:22:08;93551.16;;;11.42;72.08
39301;BME280;25019;42.626;23.380;2023-04-26T08:24:33;93539.25;;;11.29;72.65
39301;BME280;25019;42.626;23.380;2023-04-26T08:26:59;93523.34;;;11.18;76.39
39301;BME280;25019;42.626;23.380;2023-04-26T08:29:26;93544.78;;;11.37;75.36
39301;BME280;25019;42.626;23.380;2023-04-26T08:31:52;93520.31;;;11.41;74.46
39301;BME280;25019;42.626;23.380;2023-04-26T08:34:18;93500.00;;;11.10;76.23
39301;BME280;25019;42.626;23.380;2023-04-26T08:36:44;93535.50;;;11.35;73.77
39301;BME280;25019;42.626;23.380;2023-04-26T08:39:12;93546.47;;;11.23;75.37
39301;BME280;25019;42.626;23.380;2023-04-26T08:41:42;93531.09;;;11.09;75.25
39301;BME280;25019;42.626;23.380;2023-04-26T08:44:08;93534.06;;;11.03;75.74
39301;BME280;25019;42.626;23.380;2023-04-26T08:46:59;93538.28;;;11.04;75.21
39301;BME280;25019;42.626;23.380;2023-04-26T08:49:39;93538.72;;;11.27;75.32
39301;BME280;25019;42.626;23.380;2023-04-26T08:52:11;93532.50;;;11.52;75.70
39301;BME280;25019;42.626;23.380;2023-04-26T08:54:38;93536.69;;;11.58;75.78
39301;BME280;25019;42.626;23.380;2023-04-26T08:57:05;93548.63;;;12.11;73.46
39301;BME280;25019;42.626;23.380;2023-04-26T08:59:38;93547.84;;;12.05;71.92
39301;BME280;25019;42.626;23.380;2023-04-26T09:02:05;93554.16;;;12.14;71.06
39301;BME280;25019;42.626;23.380;2023-04-26T09:04:31;93490.75;;;11.87;70.90
39301;BME280;25019;42.626;23.380;2023-04-26T09:07:00;93530.66;;;11.87;70.61
39301;BME280;25019;42.626;23.380;2023-04-26T09:09:27;93557.03;;;12.23;70.17
39301;BME280;25019;42.626;23.380;2023-04-26T09:11:59;93565.06;;;12.13;69.56
39301;BME280;25019;42.626;23.380;2023-04-26T09:14:27;93543.41;;;11.90;70.96
39301;BME280;25019;42.626;23.380;2023-04-26T09:16:53;93567.78;;;12.42;70.90
39301;BME280;25019;42.626;23.380;2023-04-26T09:19:40;93496.28;;;12.31;67.66
39301;BME280;25019;42.626;23.380;2023-04-26T09:22:09;93506.53;;;12.42;65.85
39301;BME280;25019;42.626;23.380;2023-04-26T09:24:49;93550.06;;;12.27;66.94
39301;BME280;25019;42.626;23.380;2023-04-26T09:27:17;93534.03;;;12.62;68.29
39301;BME280;25019;42.626;23.380;2023-04-26T09:37:52;93525.81;;;12.58;66.71
39301;BME280;25019;42.626;23.380;2023-04-26T09:40:20;93560.16;;;12.89;66.93
39301;BME280;25019;42.626;23.380;2023-04-26T09:42:45;93497.47;;;12.43;66.09
39301;BME280;25019;42.626;23.380;2023-04-26T09:45:12;93541.41;;;12.70;66.85
39301;BME280;25019;42.626;23.380;2023-04-26T09:47:37;93531.34;;;12.92;66.94
39301;BME280;25019;42.626;23.380;2023-04-26T09:50:03;93554.56;;;13.10;63.57
39301;BME280;25019;42.626;23.380;2023-04-26T09:52:29;93489.56;;;12.63;63.87
39301;BME280;25019;42.626;23.380;2023-04-26T09:54:55;93528.38;;;12.93;63.93
39301;BME280;25019;42.626;23.380;2023-04-26T09:57:21;93555.25;;;13.45;63.41
39301;BME280;25019;42.626;23.380;2023-04-26T09:59:49;93557.88;;;13.51;61.94
39301;BME280;25019;42.626;23.380;2023-04-26T10:02:21;93549.56;;;13.52;61.86
39301;BME280;25019;42.626;23.380;2023-04-26T10:04:49;93556.63;;;13.62;61.82
39301;BME280;25019;42.626;23.380;2023-04-26T10:07:16;93543.09;;;13.58;60.79
39301;BME280;25019;42.626;23.380;2023-04-26T10:09:43;93530.22;;;13.41;61.10
39301;BME280;25019;42.626;23.380;2023-04-26T10:12:14;93550.13;;;13.25;62.50
39301;BME280;25019;42.626;23.380;2023-04-26T10:14:41;93545.69;;;13.39;62.32
39301;BME280;25019;42.626;23.380;2023-04-26T10:17:09;93500.34;;;13.20;60.93
39301;BME280;25019;42.626;23.380;2023-04-26T10:19:36;93555.41;;;13.92;60.15
39301;BME280;25019;42.626;23.380;2023-04-26T10:22:22;93541.00;;;13.74;60.26
39301;BME280;25019;42.626;23.380;2023-04-26T10:24:51;93527.53;;;13.99;59.02
39301;BME280;25019;42.626;23.380;2023-04-26T10:30:18;93509.81;;;13.70;58.42
39301;BME280;25019;42.626;23.380;2023-04-26T10:35:26;93539.47;;;13.68;59.23
39301;BME280;25019;42.626;23.380;2023-04-26T10:40:36;93517.09;;;13.45;58.13
39301;BME280;25019;42.626;23.380;2023-04-26T10:45:46;93447.97;;;12.86;58.17
39301;BME280;25019;42.626;23.380;2023-04-26T10:58:48;93518.97;;;13.83;56.81
39301;BME280;25019;42.626;23.380;2023-04-26T11:06:23;93449.91;;;13.04;54.71
39301;BME280;25019;42.626;23.380;2023-04-26T11:08:50;93521.25;;;13.75;55.05
39301;BME280;25019;42.626;23.380;2023-04-26T11:11:16;93465.25;;;13.32;55.54
39301;BME280;25019;42.626;23.380;2023-04-26T11:13:45;93522.38;;;13.88;55.15
39301;BME280;25019;42.626;23.380;2023-04-26T11:16:11;93533.63;;;14.04;53.44
39301;BME280;25019;42.626;23.380;2023-04-26T11:18:39;93522.00;;;13.76;52.76
39301;BME280;25019;42.626;23.380;2023-04-26T11:21:07;93510.19;;;13.63;53.54
39301;BME280;25019;42.626;23.380;2023-04-26T11:23:33;93527.47;;;13.85;52.21
39301;BME280;25019;42.626;23.380;2023-04-26T11:26:01;93516.69;;;13.57;53.00
39301;BME280;25019;42.626;23.380;2023-04-26T11:28:31;93409.47;;;12.97;53.40
39301;BME280;25019;42.626;23.380;2023-04-26T11:30:57;93468.66;;;13.18;53.30
39301;BME280;25019;42.626;23.380;2023-04-26T11:33:23;93433.66;;;13.01;53.53
39301;BME280;25019;42.626;23.380;2023-04-26T11:35:54;93523.66;;;13.72;52.05
39301;BME280;25019;42.626;23.380;2023-04-26T11:38:25;93472.34;;;13.61;52.22
39301;BME280;25019;42.626;23.380;2023-04-26T11:40:59;93522.19;;;14.18;52.53
39301;BME280;25019;42.626;23.380;2023-04-26T11:43:44;93523.91;;;14.42;51.32
39301;BME280;25019;42.626;23.380;2023-04-26T11:46:09;93520.50;;;14.55;50.85
39301;BME280;25019;42.626;23.380;2023-04-26T11:48:36;93385.69;;;13.58;50.02
39301;BME280;25019;42.626;23.380;2023-04-26T11:51:04;93510.28;;;14.10;50.42
39301;BME280;25019;42.626;23.380;2023-04-26T11:53:37;93481.81;;;14.05;50.20
39301;BME280;25019;42.626;23.380;2023-04-26T11:56:30;93443.94;;;13.70;50.47
39301;BME280;25019;42.626;23.380;2023-04-26T11:58:56;93469.25;;;13.54;49.86
39301;BME280;25019;42.626;23.380;2023-04-26T12:03:51;93513.03;;;14.38;50.64
39301;BME280;25019;42.626;23.380;2023-04-26T12:06:18;93458.03;;;13.90;50.45
39301;BME280;25019;42.626;23.380;2023-04-26T12:08:50;93499.84;;;14.28;50.01
39301;BME280;25019;42.626;23.380;2023-04-26T12:11:18;93478.72;;;14.31;49.65
39301;BME280;25019;42.626;23.380;2023-04-26T12:13:45;93496.75;;;14.67;48.84
39301;BME280;25019;42.626;23.380;2023-04-26T12:16:12;93472.91;;;14.57;48.30
39301;BME280;25019;42.626;23.380;2023-04-26T12:18:40;93473.00;;;14.66;48.20
39301;BME280;25019;42.626;23.380;2023-04-26T12:21:06;93503.13;;;14.86;48.37
39301;BME280;25019;42.626;23.380;2023-04-26T12:23:39;93503.47;;;14.51;49.61
39301;BME280;25019;42.626;23.380;2023-04-26T12:26:05;93495.94;;;14.39;50.08
39301;BME280;25019;42.626;23.380;2023-04-26T12:28:31;93415.41;;;13.85;49.31
39301;BME280;25019;42.626;23.380;2023-04-26T12:30:59;93459.06;;;14.08;49.45
39301;BME280;25019;42.626;23.380;2023-04-26T12:33:26;93497.13;;;14.61;49.53
39301;BME280;25019;42.626;23.380;2023-04-26T12:35:51;93498.00;;;14.75;49.02
39301;BME280;25019;42.626;23.380;2023-04-26T12:38:20;93463.50;;;14.60;48.24
39301;BME280;25019;42.626;23.380;2023-04-26T12:40:46;93447.69;;;14.63;48.33
39301;BME280;25019;42.626;23.380;2023-04-26T12:43:12;93479.78;;;14.77;47.76
39301;BME280;25019;42.626;23.380;2023-04-26T12:45:40;93497.94;;;14.47;49.18
39301;BME280;25019;42.626;23.380;2023-04-26T12:48:06;93436.56;;;13.62;49.33
39301;BME280;25019;42.626;23.380;2023-04-26T12:50:32;93473.75;;;13.91;49.56
39301;BME280;25019;42.626;23.380;2023-04-26T12:52:58;93468.16;;;14.07;49.38
39301;BME280;25019;42.626;23.380;2023-04-26T12:55:23;93489.81;;;14.05;48.78
39301;BME280;25019;42.626;23.380;2023-04-26T12:57:49;93430.16;;;13.63;49.50
39301;BME280;25019;42.626;23.380;2023-04-26T13:00:16;93423.63;;;13.88;50.19
39301;BME280;25019;42.626;23.380;2023-04-26T13:02:46;93496.06;;;14.62;50.65
39301;BME280;25019;42.626;23.380;2023-04-26T13:05:11;93490.97;;;14.32;48.92
39301;BME280;25019;42.626;23.380;2023-04-26T13:07:39;93491.75;;;14.00;50.22
39301;BME280;25019;42.626;23.380;2023-04-26T13:10:06;93505.50;;;13.74;51.60
39301;BME280;25019;42.626;23.380;2023-04-26T13:12:33;93513.44;;;13.41;51.70
39301;BME280;25019;42.626;23.380;2023-04-26T13:14:58;93503.31;;;12.94;51.23
39301;BME280;25019;42.626;23.380;2023-04-26T13:17:25;93520.31;;;12.74;53.64
39301;BME280;25019;42.626;23.380;2023-04-26T13:19:52;93536.66;;;12.67;55.00
39301;BME280;25019;42.626;23.380;2023-04-26T13:22:18;93535.41;;;12.59;55.84
39301;BME280;25019;42.626;23.380;2023-04-26T13:24:44;93538.13;;;12.54;56.19
39301;BME280;25019;42.626;23.380;2023-04-26T13:27:10;93540.22;;;12.57;57.02